Time;durP1;ratioP1;P1;durP2;ratioP2;P2;SDS_P1;SDS_P2;PMS_P1;PMS_P2;Temp;Humidity;BMP_temperature;BMP_pressure;BME280_temperature;BME280_humidity;BME280_pressure;Samples;Min_cycle;Max_cycle;Signal;HPM_P1;HPM_P2
2022/03/21 00:02:07;;;;;;;15.65;10.32;;;8.10;1.00;;;;;;7362331;19;20450;-61
2022/03/21 00:04:37;;;;;;;14.98;9.75;;;8.00;1.00;;;;;;7353147;19;20019;-62
2022/03/21 00:07:07;;;;;;;14.65;9.65;;;8.10;1.00;;;;;;7382935;19;20014;-61
2022/03/21 00:09:37;;;;;;;18.33;10.32;;;8.20;1.00;;;;;;7361662;19;20085;-61
2022/03/21 00:12:07;;;;;;;14.77;9.63;;;8.00;1.00;;;;;;7367025;19;20054;-61
2022/03/21 00:14:41;;;;;;;12.77;9.13;;;7.90;1.00;;;;;;7361297;19;20019;-61
2022/03/21 00:17:11;;;;;;;16.47;10.03;;;8.00;1.00;;;;;;7370248;19;20013;-61
2022/03/21 00:19:41;;;;;;;16.73;10.57;;;8.00;1.00;;;;;;7370662;19;20082;-62
2022/03/21 00:22:11;;;;;;;16.88;10.52;;;8.00;1.00;;;;;;7391697;19;20048;-61
2022/03/21 00:24:42;;;;;;;21.20;10.27;;;8.00;1.00;;;;;;7367202;19;20048;-61
2022/03/21 00:27:12;;;;;;;17.85;10.13;;;7.80;1.00;;;;;;7367274;19;20014;-61
2022/03/21 00:29:47;;;;;;;15.65;10.30;;;7.90;1.00;;;;;;7369199;19;20411;-62
2022/03/21 00:32:18;;;;;;;17.13;10.18;;;7.90;1.00;;;;;;7369923;19;20102;-61
2022/03/21 00:34:48;;;;;;;17.05;9.18;;;7.90;1.00;;;;;;7364221;19;20047;-61
2022/03/21 00:37:18;;;;;;;14.25;9.57;;;7.70;1.00;;;;;;7390440;19;20470;-61
2022/03/21 00:39:48;;;;;;;14.60;10.05;;;7.70;1.00;;;;;;7368810;19;20022;-61
2022/03/21 00:42:18;;;;;;;13.63;9.63;;;7.60;1.00;;;;;;7367147;19;20024;-61
2022/03/21 00:44:50;;;;;;;15.77;9.48;;;7.60;1.00;;;;;;7364633;19;20751;-61
2022/03/21 00:47:20;;;;;;;18.27;9.80;;;7.50;1.00;;;;;;7368301;19;20010;-61
2022/03/21 00:49:52;;;;;;;16.05;9.40;;;7.50;1.00;;;;;;7368581;19;20018;-62
2022/03/21 00:52:22;;;;;;;14.98;9.23;;;7.40;1.00;;;;;;7390412;19;20021;-61
2022/03/21 00:54:52;;;;;;;15.55;9.52;;;7.30;1.00;;;;;;7361727;19;20074;-62
2022/03/21 00:57:22;;;;;;;14.38;8.93;;;7.30;1.00;;;;;;7367419;19;20529;-61
2022/03/21 00:59:54;;;;;;;15.70;9.65;;;7.20;1.00;;;;;;7368473;19;20484;-61
2022/03/21 01:02:24;;;;;;;12.95;8.93;;;7.10;1.00;;;;;;7368150;19;20360;-61
2022/03/21 01:04:54;;;;;;;14.70;9.68;;;7.00;1.00;;;;;;7364478;19;20019;-61
2022/03/21 01:07:24;;;;;;;15.45;9.90;;;7.10;1.00;;;;;;7389201;19;20014;-61
2022/03/21 01:09:53;;;;;;;15.48;10.23;;;7.00;1.00;;;;;;7367847;19;20015;-61
2022/03/21 01:12:24;;;;;;;15.95;10.07;;;7.00;1.00;;;;;;7366415;19;20010;-61
2022/03/21 01:14:56;;;;;;;14.43;9.40;;;6.90;1.00;;;;;;7363519;19;20014;-61
2022/03/21 01:17:26;;;;;;;15.88;9.60;;;6.80;1.00;;;;;;7367403;19;20017;-61
2022/03/21 01:19:56;;;;;;;14.60;9.88;;;6.80;1.00;;;;;;7368107;19;20547;-61
2022/03/21 01:22:26;;;;;;;16.67;10.00;;;6.90;1.00;;;;;;7387449;19;20010;-61
2022/03/21 01:24:56;;;;;;;16.92;9.60;;;7.00;1.00;;;;;;7360323;19;20090;-61
2022/03/21 01:27:26;;;;;;;17.58;9.68;;;7.00;1.00;;;;;;7364448;19;20373;-61
2022/03/21 01:29:59;;;;;;;15.43;9.63;;;7.00;1.00;;;;;;7367119;19;20014;-61
2022/03/21 01:32:29;;;;;;;14.70;9.60;;;6.90;1.00;;;;;;7365847;19;20009;-61
2022/03/21 01:34:59;;;;;;;14.43;9.23;;;6.90;1.00;;;;;;7360450;19;20010;-61
2022/03/21 01:37:29;;;;;;;13.15;8.93;;;6.90;1.00;;;;;;7388800;19;20086;-61
2022/03/21 01:39:59;;;;;;;12.60;8.55;;;6.90;1.00;;;;;;7364952;19;20010;-61
2022/03/21 01:42:29;;;;;;;14.52;8.95;;;6.90;1.00;;;;;;7364134;19;20007;-61
2022/03/21 01:45:01;;;;;;;14.48;8.93;;;6.90;1.00;;;;;;7361629;19;20023;-61
2022/03/21 01:47:33;;;;;;;13.70;9.10;;;6.90;1.00;;;;;;7364922;19;20109;-61
2022/03/21 01:50:03;;;;;;;17.77;9.80;;;6.80;1.00;;;;;;7367382;19;20010;-61
2022/03/21 01:52:33;;;;;;;16.45;8.95;;;6.90;1.00;;;;;;7386825;19;20010;-61
2022/03/21 01:57:47;;;;;;;14.48;9.43;;;6.70;1.00;;;;;;7365642;19;20015;-61
2022/03/21 02:00:21;;;;;;;13.30;8.90;;;6.70;1.00;;;;;;7365357;19;20437;-61
2022/03/21 02:02:50;;;;;;;15.75;9.88;;;6.70;1.00;;;;;;7364767;19;20010;-61
2022/03/21 02:05:21;;;;;;;14.82;9.70;;;6.50;1.00;;;;;;7359862;19;20016;-61
2022/03/21 02:07:52;;;;;;;15.35;9.45;;;6.50;1.00;;;;;;7366194;19;20028;-61
2022/03/21 02:10:22;;;;;;;14.32;8.55;;;6.40;1.00;;;;;;7388573;19;20636;-61
2022/03/21 02:12:52;;;;;;;14.38;9.63;;;6.50;1.00;;;;;;7363970;19;20092;-61
2022/03/21 02:15:25;;;;;;;15.50;10.43;;;6.40;1.00;;;;;;7360567;19;20449;-61
2022/03/21 02:18:02;;;;;;;14.57;9.32;;;6.30;1.00;;;;;;7364804;19;20112;-61
2022/03/21 02:20:35;;;;;;;14.77;9.65;;;6.20;1.00;;;;;;7367284;19;20470;-61
2022/03/21 02:23:12;;;;;;;14.60;9.10;;;6.20;1.00;;;;;;7364530;19;20014;-61
2022/03/21 02:25:45;;;;;;;16.70;9.27;;;6.30;1.00;;;;;;7364746;19;20459;-62
2022/03/21 02:28:17;;;;;;;15.32;9.77;;;6.20;1.00;;;;;;7386556;19;20480;-61
2022/03/21 02:30:49;;;;;;;14.70;8.65;;;6.20;1.00;;;;;;7365618;19;20089;-61
2022/03/21 02:33:21;;;;;;;15.05;9.57;;;6.20;1.00;;;;;;7357264;19;20074;-61
2022/03/21 02:35:53;;;;;;;15.80;9.90;;;6.10;1.00;;;;;;7364967;19;20126;-61
2022/03/21 02:38:23;;;;;;;15.20;10.20;;;6.10;1.00;;;;;;7365017;19;20014;-61
2022/03/21 02:40:55;;;;;;;16.45;10.35;;;6.10;1.00;;;;;;7365314;19;20019;-61
2022/03/21 02:43:25;;;;;;;17.15;10.25;;;6.10;1.00;;;;;;7379770;19;20018;-62
2022/03/21 02:46:05;;;;;;;13.77;8.75;;;6.00;1.00;;;;;;7364881;19;20074;-61
2022/03/21 02:48:35;;;;;;;15.25;9.52;;;5.90;1.00;;;;;;7363404;19;20018;-61
2022/03/21 02:51:05;;;;;;;15.18;9.65;;;5.90;1.00;;;;;;7366464;19;20078;-61
2022/03/21 02:53:38;;;;;;;15.25;10.07;;;5.90;1.00;;;;;;7357080;19;20010;-61
2022/03/21 02:56:10;;;;;;;14.57;9.70;;;5.80;1.00;;;;;;7364976;19;20018;-61
2022/03/21 02:58:40;;;;;;;15.18;9.65;;;5.70;1.00;;;;;;7364065;19;20086;-61
2022/03/21 03:01:10;;;;;;;14.65;9.75;;;5.60;1.00;;;;;;7387046;19;20024;-61
2022/03/21 03:03:41;;;;;;;13.32;9.38;;;5.60;1.00;;;;;;7356062;19;20010;-61
2022/03/21 03:06:11;;;;;;;15.50;10.07;;;5.60;1.00;;;;;;7365103;19;20090;-61
2022/03/21 03:08:43;;;;;;;21.73;11.65;;;5.70;1.00;;;;;;7362792;19;20073;-61
2022/03/21 03:11:15;;;;;;;16.25;9.55;;;5.70;1.00;;;;;;7364242;19;20497;-61
2022/03/21 03:13:45;;;;;;;16.27;9.68;;;5.70;1.00;;;;;;7357095;19;20028;-61
2022/03/21 03:16:15;;;;;;;16.13;10.18;;;5.80;1.00;;;;;;7386751;19;20060;-61
2022/03/21 03:18:45;;;;;;;15.45;9.55;;;5.70;1.00;;;;;;7363347;19;20018;-61
2022/03/21 03:21:19;;;;;;;15.73;9.80;;;5.60;1.00;;;;;;7364640;19;20013;-61
2022/03/21 03:23:51;;;;;;;17.95;9.60;;;5.60;1.00;;;;;;7355550;19;20007;-61
2022/03/21 03:26:23;;;;;;;16.85;9.75;;;5.60;1.00;;;;;;7364348;19;20085;-61
2022/03/21 03:28:53;;;;;;;15.88;9.50;;;5.70;1.00;;;;;;7362511;19;20014;-61
2022/03/21 03:31:23;;;;;;;18.85;9.77;;;5.60;1.00;;;;;;7384346;19;20039;-61
2022/03/21 03:33:54;;;;;;;15.27;9.27;;;5.90;1.00;;;;;;7355631;19;20502;-61
2022/03/21 03:36:24;;;;;;;12.45;8.80;;;5.90;1.00;;;;;;7363893;19;20794;-61
2022/03/21 03:38:54;;;;;;;11.75;9.15;;;5.90;1.00;;;;;;7362559;19;20014;-61
2022/03/21 03:41:27;;;;;;;13.93;9.10;;;5.90;1.00;;;;;;7363937;19;20023;-61
2022/03/21 03:43:58;;;;;;;17.00;9.50;;;5.90;1.00;;;;;;7355671;19;20014;-61
2022/03/21 03:46:28;;;;;;;13.60;9.27;;;5.90;1.00;;;;;;7388681;19;20014;-61
2022/03/21 03:48:58;;;;;;;14.18;9.02;;;5.80;1.00;;;;;;7369637;19;20014;-61
2022/03/21 03:51:27;;;;;;;15.18;9.50;;;5.90;1.00;;;;;;7371917;19;20017;-61
2022/03/21 03:53:57;;;;;;;14.07;10.07;;;5.80;1.00;;;;;;7361437;19;20070;-61
2022/03/21 03:56:30;;;;;;;15.15;9.57;;;5.70;1.00;;;;;;7371661;19;20006;-61
2022/03/21 03:58:59;;;;;;;13.93;9.52;;;5.60;1.00;;;;;;7370258;19;20090;-62
2022/03/21 04:01:29;;;;;;;15.00;9.57;;;5.60;1.00;;;;;;7392482;19;20010;-61
2022/03/21 04:04:00;;;;;;;14.48;9.23;;;5.50;1.00;;;;;;7362714;19;20753;-61
2022/03/21 04:06:30;;;;;;;17.98;10.02;;;5.50;1.00;;;;;;7370072;19;20081;-61
2022/03/21 04:09:00;;;;;;;16.00;9.77;;;5.50;1.00;;;;;;7368883;19;20019;-61
2022/03/21 04:11:34;;;;;;;17.02;9.90;;;5.50;1.00;;;;;;7370752;19;20029;-61
2022/03/21 04:14:03;;;;;;;14.82;10.18;;;5.50;1.00;;;;;;7362651;19;20015;-61
2022/03/21 04:16:33;;;;;;;14.07;8.93;;;5.50;1.00;;;;;;7393470;19;20014;-61
2022/03/21 04:19:03;;;;;;;16.23;9.23;;;5.30;1.00;;;;;;7369344;19;20013;-61
2022/03/21 04:21:33;;;;;;;13.45;9.63;;;5.30;1.00;;;;;;7369150;19;20458;-61
2022/03/21 04:24:03;;;;;;;18.02;9.70;;;5.30;1.00;;;;;;7361177;19;20006;-61
2022/03/21 04:26:35;;;;;;;15.43;10.38;;;5.40;1.00;;;;;;7370386;19;20010;-61
2022/03/21 04:29:05;;;;;;;19.98;8.98;;;5.20;1.00;;;;;;7368746;19;20011;-61
2022/03/21 04:31:35;;;;;;;14.30;9.23;;;5.20;1.00;;;;;;7378701;19;20017;-60
2022/03/21 04:34:06;;;;;;;13.65;9.05;;;5.30;1.00;;;;;;7382894;19;20482;-62
2022/03/21 04:36:36;;;;;;;15.85;9.93;;;5.30;1.00;;;;;;7368989;19;20505;-62
2022/03/21 04:39:05;;;;;;;14.13;9.65;;;5.30;1.00;;;;;;7368808;19;20501;-60
2022/03/21 04:41:38;;;;;;;14.15;9.32;;;5.30;1.00;;;;;;7369737;19;20370;-59
2022/03/21 04:44:08;;;;;;;17.00;9.77;;;5.30;1.00;;;;;;7361713;19;20478;-62
2022/03/21 04:46:38;;;;;;;13.98;9.65;;;5.20;1.00;;;;;;7369656;19;20014;-62
2022/03/21 04:49:08;;;;;;;15.90;9.48;;;5.20;1.00;;;;;;7389648;19;20014;-61
2022/03/21 04:51:38;;;;;;;13.85;9.35;;;5.10;1.00;;;;;;7369063;19;20019;-60
2022/03/21 04:54:08;;;;;;;17.08;8.98;;;5.20;1.00;;;;;;7359811;19;20011;-61
2022/03/21 04:56:40;;;;;;;15.60;10.10;;;5.10;1.00;;;;;;7368816;19;20007;-61
2022/03/21 04:59:10;;;;;;;18.25;10.40;;;5.00;1.00;;;;;;7368612;19;20097;-61
2022/03/21 05:01:40;;;;;;;15.80;10.48;;;4.90;1.00;;;;;;7368783;19;20617;-62
2022/03/21 05:04:10;;;;;;;15.32;10.15;;;4.80;1.00;;;;;;7381336;19;20116;-61
2022/03/21 05:06:40;;;;;;;15.35;10.52;;;4.80;1.00;;;;;;7367946;19;20010;-62
2022/03/21 05:09:10;;;;;;;16.05;9.27;;;4.70;1.00;;;;;;7367185;19;20393;-60
2022/03/21 05:11:43;;;;;;;16.08;9.55;;;4.70;1.00;;;;;;7367809;19;20010;-61
2022/03/21 05:14:13;;;;;;;15.13;9.55;;;4.60;1.00;;;;;;7360428;19;20078;-61
2022/03/21 05:16:43;;;;;;;15.52;10.27;;;4.50;1.00;;;;;;7368353;19;20006;-60
2022/03/21 05:19:13;;;;;;;17.83;10.82;;;4.50;1.00;;;;;;7388782;19;20802;-61
2022/03/21 05:21:43;;;;;;;18.20;10.70;;;4.60;1.00;;;;;;7367520;19;20021;-61
2022/03/21 05:32:23;;;;;;;17.67;11.45;;;4.50;1.00;;;;;;7365994;19;20015;-62
2022/03/21 05:37:37;;;;;;;14.82;10.20;;;4.60;1.00;;;;;;7369899;19;20024;-63
2022/03/21 05:42:54;;;;;;;16.65;10.27;;;4.60;1.00;;;;;;7363755;19;20019;-62
2022/03/21 05:45:24;;;;;;;18.27;10.35;;;4.70;1.00;;;;;;7361337;19;20069;-61
2022/03/21 05:50:39;;;;;;;16.25;11.07;;;4.70;1.00;;;;;;7366531;19;20007;-61
2022/03/21 05:53:09;;;;;;;14.77;9.70;;;4.80;1.00;;;;;;7359700;19;20482;-62
2022/03/21 05:55:39;;;;;;;18.92;11.02;;;4.70;1.00;;;;;;7359867;19;20094;-61
2022/03/21 05:58:12;;;;;;;18.73;10.65;;;4.70;1.00;;;;;;7385112;19;20006;-61
2022/03/21 06:00:42;;;;;;;18.27;11.45;;;4.80;1.00;;;;;;7366250;19;20016;-61
2022/03/21 06:03:12;;;;;;;17.67;10.57;;;4.90;1.00;;;;;;7362488;19;19999;-60
2022/03/21 06:05:44;;;;;;;15.60;10.68;;;5.00;1.00;;;;;;7362482;19;20114;-61
2022/03/21 06:08:14;;;;;;;18.80;11.13;;;5.00;1.00;;;;;;7363491;19;20089;-61
2022/03/21 06:10:44;;;;;;;15.75;9.68;;;5.20;1.00;;;;;;7365297;19;20014;-60
2022/03/21 06:13:18;;;;;;;17.65;10.63;;;5.20;1.00;;;;;;7382951;19;20018;-61
2022/03/21 06:15:48;;;;;;;16.10;10.70;;;5.20;1.00;;;;;;7363298;19;20094;-60
2022/03/21 06:18:17;;;;;;;16.33;11.35;;;5.30;1.00;;;;;;7365664;19;20017;-61
2022/03/21 06:20:47;;;;;;;15.73;9.75;;;5.40;1.00;;;;;;7364700;19;20392;-61
2022/03/21 06:23:17;;;;;;;17.83;9.90;;;5.40;1.00;;;;;;7357958;19;20050;-60
2022/03/21 06:25:47;;;;;;;19.77;10.75;;;5.50;1.00;;;;;;7360491;19;20096;-61
2022/03/21 06:28:19;;;;;;;15.85;10.18;;;5.50;1.00;;;;;;7385570;19;20018;-62
2022/03/21 06:30:53;;;;;;;20.23;10.55;;;5.40;1.00;;;;;;7363531;19;20086;-62
2022/03/21 06:33:25;;;;;;;15.15;10.63;;;5.50;1.00;;;;;;7358218;19;20010;-61
2022/03/21 06:35:56;;;;;;;17.63;10.05;;;5.60;1.00;;;;;;7362586;19;20036;-61
2022/03/21 06:38:26;;;;;;;16.77;10.15;;;5.60;1.00;;;;;;7363746;19;20014;-61
2022/03/21 06:40:57;;;;;;;19.85;10.82;;;5.70;1.00;;;;;;7363757;19;20019;-60
2022/03/21 06:43:30;;;;;;;18.98;11.07;;;5.70;1.00;;;;;;7380811;19;20003;-60
2022/03/21 06:46:06;;;;;;;17.65;9.98;;;5.80;1.00;;;;;;7363720;19;20014;-61
2022/03/21 06:48:37;;;;;;;20.20;11.48;;;5.90;1.00;;;;;;7363273;19;20294;-61
2022/03/21 06:51:07;;;;;;;14.57;10.35;;;5.90;1.00;;;;;;7363211;19;20193;-60
2022/03/21 06:53:40;;;;;;;17.58;10.48;;;6.00;1.00;;;;;;7357150;19;20029;-61
2022/03/21 06:56:10;;;;;;;17.43;10.17;;;6.10;1.00;;;;;;7365009;19;20027;-62
2022/03/21 06:58:43;;;;;;;16.67;10.45;;;6.20;1.00;;;;;;7362667;19;20268;-62
2022/03/21 07:01:13;;;;;;;22.63;11.10;;;6.20;1.00;;;;;;7386438;19;21072;-62
2022/03/21 07:03:43;;;;;;;16.77;10.75;;;6.30;1.00;;;;;;7355531;19;20477;-60
2022/03/21 07:06:13;;;;;;;16.98;10.43;;;6.20;1.00;;;;;;7363492;19;20013;-61
2022/03/21 07:08:43;;;;;;;15.68;10.45;;;6.40;1.00;;;;;;7362927;19;20010;-61
2022/03/21 07:11:13;;;;;;;17.10;10.57;;;6.50;1.00;;;;;;7359274;19;20106;-62
2022/03/21 07:13:45;;;;;;;16.60;11.07;;;6.60;1.00;;;;;;7353179;19;20500;-62
2022/03/21 07:16:16;;;;;;;18.75;11.10;;;6.60;1.00;;;;;;7381044;19;20014;-62
2022/03/21 07:18:47;;;;;;;19.75;10.48;;;6.70;1.00;;;;;;7357623;19;20002;-61
2022/03/21 07:21:22;;;;;;;15.90;10.40;;;6.80;1.00;;;;;;7358052;19;20011;-62
2022/03/21 07:23:52;;;;;;;17.50;10.55;;;6.90;1.00;;;;;;7351436;19;20094;-61
2022/03/21 07:26:22;;;;;;;16.75;10.27;;;6.90;1.00;;;;;;7362860;19;20017;-62
2022/03/21 07:28:55;;;;;;;18.05;10.60;;;6.90;1.00;;;;;;7362649;19;20027;-63
2022/03/21 07:31:34;;;;;;;18.35;10.05;;;7.00;1.00;;;;;;7385488;19;20010;-62
2022/03/21 07:34:04;;;;;;;16.38;10.25;;;7.10;1.00;;;;;;7378022;19;20032;-60
2022/03/21 07:36:34;;;;;;;15.20;10.10;;;7.20;1.00;;;;;;7387179;19;20320;-62
2022/03/21 07:39:05;;;;;;;16.23;10.60;;;7.30;1.00;;;;;;7384743;19;20360;-62
2022/03/21 07:41:35;;;;;;;22.17;10.98;;;7.50;1.00;;;;;;7341243;19;20479;-60
2022/03/21 07:44:11;;;;;;;19.17;10.90;;;7.70;1.00;;;;;;7374632;19;20014;-61
2022/03/21 07:49:23;;;;;;;17.30;9.85;;;7.70;1.00;;;;;;7360760;19;20078;-62
2022/03/21 07:51:53;;;;;;;20.35;10.45;;;7.80;1.00;;;;;;7360539;19;20011;-61
2022/03/21 07:54:23;;;;;;;18.75;11.10;;;8.00;1.00;;;;;;7355183;19;20010;-60
2022/03/21 07:56:53;;;;;;;26.10;11.70;;;8.00;1.00;;;;;;7362375;19;20054;-61
2022/03/21 07:59:25;;;;;;;16.33;10.27;;;8.30;1.00;;;;;;7361391;19;20090;-61
2022/03/21 08:01:55;;;;;;;18.70;10.13;;;8.20;1.00;;;;;;7384499;19;20034;-61
2022/03/21 08:04:25;;;;;;;21.95;10.82;;;8.20;1.00;;;;;;7350353;19;20465;-62
2022/03/21 08:06:58;;;;;;;16.02;10.55;;;8.20;1.00;;;;;;7361409;19;20039;-61
2022/03/21 08:09:28;;;;;;;18.23;10.45;;;8.10;1.00;;;;;;7362530;19;20073;-61
2022/03/21 08:12:00;;;;;;;18.10;10.75;;;8.30;1.00;;;;;;7362814;19;20018;-61
2022/03/21 08:14:33;;;;;;;17.42;9.93;;;8.40;1.00;;;;;;7353413;19;20035;-61
2022/03/21 08:17:03;;;;;;;20.75;11.68;;;8.50;1.00;;;;;;7383731;19;20018;-60
2022/03/21 08:19:33;;;;;;;18.13;11.40;;;8.60;1.00;;;;;;7361284;19;20014;-61
2022/03/21 08:22:04;;;;;;;18.15;10.93;;;8.90;1.00;;;;;;7361333;19;20011;-61
2022/03/21 08:24:36;;;;;;;16.30;10.80;;;8.90;1.00;;;;;;7352344;19;20116;-61
2022/03/21 08:27:07;;;;;;;16.67;10.88;;;8.80;1.00;;;;;;7362254;19;20078;-61
2022/03/21 08:29:40;;;;;;;19.50;10.77;;;8.90;1.00;;;;;;7361582;19;20115;-61
2022/03/21 08:32:10;;;;;;;18.80;11.05;;;8.90;1.00;;;;;;7377533;19;20515;-62
2022/03/21 08:34:40;;;;;;;20.50;11.52;;;9.10;1.00;;;;;;7381633;19;20015;-62
2022/03/21 08:37:10;;;;;;;16.45;10.82;;;9.30;1.00;;;;;;7368150;19;20007;-60
2022/03/21 08:39:40;;;;;;;22.33;11.80;;;9.40;1.00;;;;;;7367835;19;20077;-60
2022/03/21 08:42:10;;;;;;;16.90;11.10;;;9.40;1.00;;;;;;7365528;19;20040;-61
2022/03/21 08:44:42;;;;;;;18.65;11.20;;;9.70;1.00;;;;;;7382456;19;20010;-65
2022/03/21 08:47:12;;;;;;;15.77;11.25;;;9.80;1.00;;;;;;7359079;19;20045;-62
2022/03/21 08:49:42;;;;;;;18.77;12.13;;;10.10;1.00;;;;;;7388135;19;20078;-61
2022/03/21 08:52:13;;;;;;;22.67;12.23;;;10.00;1.00;;;;;;7365610;19;20362;-61
2022/03/21 08:54:42;;;;;;;20.02;11.40;;;10.30;1.00;;;;;;7359977;19;20019;-61
2022/03/21 08:57:12;;;;;;;23.55;12.55;;;10.10;1.00;;;;;;7368205;19;20007;-61
2022/03/21 08:59:45;;;;;;;18.10;11.52;;;10.30;1.00;;;;;;7366086;19;20010;-62
2022/03/21 09:02:17;;;;;;;17.77;11.90;;;10.40;1.00;;;;;;7367907;19;20023;-61
2022/03/21 09:04:47;;;;;;;17.98;12.25;;;10.50;1.00;;;;;;7380387;19;20010;-61
2022/03/21 09:07:18;;;;;;;19.80;11.60;;;10.60;1.00;;;;;;7367093;19;20123;-62
2022/03/21 09:09:48;;;;;;;19.10;11.23;;;10.50;1.00;;;;;;7366014;19;20011;-62
2022/03/21 09:12:18;;;;;;;17.90;12.30;;;10.90;1.00;;;;;;7365615;19;20018;-61
2022/03/21 09:14:50;;;;;;;17.05;11.70;;;11.00;1.00;;;;;;7358192;19;20453;-62
2022/03/21 09:17:20;;;;;;;19.90;11.88;;;11.20;1.00;;;;;;7366519;19;20010;-61
2022/03/21 09:19:50;;;;;;;18.05;11.52;;;10.90;1.00;;;;;;7386094;19;20497;-61
2022/03/21 09:22:20;;;;;;;20.75;13.27;;;11.20;1.00;;;;;;7366963;19;20018;-62
2022/03/21 09:24:51;;;;;;;18.10;12.43;;;11.20;1.00;;;;;;7360161;19;20010;-62
2022/03/21 09:27:22;;;;;;;18.60;12.05;;;11.40;1.00;;;;;;7367739;19;20006;-62
2022/03/21 09:29:54;;;;;;;16.13;11.82;;;11.50;1.00;;;;;;7364168;19;20100;-61
2022/03/21 09:32:25;;;;;;;20.23;12.55;;;11.50;1.00;;;;;;7364718;19;20811;-61
2022/03/21 09:34:55;;;;;;;18.67;13.18;;;11.50;1.00;;;;;;7381380;19;20010;-61
2022/03/21 09:37:25;;;;;;;19.02;12.70;;;11.30;1.00;;;;;;7366524;19;20513;-61
2022/03/21 09:39:56;;;;;;;19.05;13.40;;;11.50;1.00;;;;;;7365922;19;20010;-61
2022/03/21 09:42:26;;;;;;;20.42;12.82;;;11.60;1.00;;;;;;7363525;19;20014;-61
2022/03/21 09:44:59;;;;;;;21.85;13.48;;;12.00;1.00;;;;;;7360581;19;20419;-61
2022/03/21 09:50:13;;;;;;;20.45;12.15;;;12.10;1.00;;;;;;7378290;19;20085;-62
2022/03/21 09:52:43;;;;;;;20.02;13.35;;;12.30;1.00;;;;;;7383142;19;20485;-60
2022/03/21 09:55:13;;;;;;;19.25;13.38;;;12.50;1.00;;;;;;7359078;19;20643;-62
2022/03/21 09:57:43;;;;;;;23.42;13.43;;;12.40;1.00;;;;;;7362956;19;20011;-61
2022/03/21 10:00:16;;;;;;;21.10;12.85;;;12.80;1.00;;;;;;7360574;19;20497;-61
2022/03/21 10:02:46;;;;;;;19.00;12.90;;;13.20;1.00;;;;;;7363454;19;20018;-62
2022/03/21 10:05:34;;;;;;;19.35;13.00;;;13.10;1.00;;;;;;7358811;19;20376;-62
2022/03/21 10:08:20;;;;;;;20.23;13.35;;;12.70;1.00;;;;;;7388318;19;20016;-62
2022/03/21 10:10:58;;;;;;;16.92;13.20;;;13.10;1.00;;;;;;7365260;19;20012;-62
2022/03/21 10:13:30;;;;;;;19.17;13.20;;;13.30;1.00;;;;;;7357843;19;20015;-61
2022/03/21 10:16:12;;;;;;;22.27;13.80;;;13.30;1.00;;;;;;7362936;19;20010;-61
2022/03/21 10:18:59;;;;;;;20.98;13.60;;;13.00;1.00;;;;;;7365253;19;20077;-61
2022/03/21 10:21:31;;;;;;;22.77;14.88;;;13.00;1.00;;;;;;7365748;19;20007;-62
2022/03/21 10:24:05;;;;;;;22.63;14.07;;;13.20;1.00;;;;;;7356874;19;20101;-62
2022/03/21 10:26:37;;;;;;;21.52;14.80;;;13.30;1.00;;;;;;7365828;19;20479;-62
2022/03/21 10:29:10;;;;;;;22.50;13.90;;;13.10;1.00;;;;;;7386882;19;20015;-62
2022/03/21 10:31:46;;;;;;;19.95;13.82;;;13.20;1.00;;;;;;7364340;19;20098;-62
2022/03/21 10:34:18;;;;;;;20.55;13.50;;;13.30;1.00;;;;;;7355474;19;20014;-61
2022/03/21 10:37:01;;;;;;;19.38;14.07;;;13.20;1.00;;;;;;7364623;19;20024;-62
2022/03/21 10:39:33;;;;;;;21.05;14.32;;;13.50;1.00;;;;;;7366187;19;20014;-62
2022/03/21 10:42:06;;;;;;;25.00;14.80;;;13.60;1.00;;;;;;7363856;19;20035;-61
2022/03/21 10:44:36;;;;;;;19.77;13.98;;;13.30;1.00;;;;;;7355843;19;20018;-61
2022/03/21 10:47:10;;;;;;;23.50;14.73;;;13.10;1.00;;;;;;7386159;19;20022;-61
2022/03/21 10:49:43;;;;;;;22.90;14.30;;;13.30;1.00;;;;;;7361607;19;20025;-61
2022/03/21 10:52:18;;;;;;;21.77;14.13;;;13.20;1.00;;;;;;7364462;19;20010;-62
2022/03/21 10:54:49;;;;;;;19.83;13.45;;;13.40;1.00;;;;;;7356544;19;20098;-61
2022/03/21 10:57:33;;;;;;;19.73;13.38;;;13.50;1.00;;;;;;7363852;19;20078;-62
2022/03/21 11:00:17;;;;;;;21.98;13.57;;;13.40;1.00;;;;;;7364164;19;20073;-61
2022/03/21 11:02:58;;;;;;;21.83;13.65;;;13.60;1.00;;;;;;7361713;19;20074;-62
2022/03/21 11:05:30;;;;;;;23.17;14.60;;;13.70;1.00;;;;;;7358774;19;20027;-61
2022/03/21 11:08:00;;;;;;;22.33;14.38;;;13.70;1.00;;;;;;7385911;19;20010;-62
2022/03/21 11:10:30;;;;;;;23.85;14.00;;;13.90;1.00;;;;;;7363560;19;20037;-62
2022/03/21 11:13:03;;;;;;;21.83;14.38;;;13.90;1.00;;;;;;7359244;19;20099;-62
2022/03/21 11:15:35;;;;;;;22.30;14.57;;;13.90;1.00;;;;;;7359163;19;20100;-61
2022/03/21 11:18:08;;;;;;;19.80;13.52;;;13.90;1.00;;;;;;7362860;19;20101;-62
2022/03/21 11:20:38;;;;;;;23.40;14.07;;;14.10;1.00;;;;;;7362275;19;20025;-62
2022/03/21 11:23:08;;;;;;;24.98;14.48;;;14.00;1.00;;;;;;7378753;19;20014;-60
2022/03/21 11:25:42;;;;;;;23.40;14.30;;;13.90;1.00;;;;;;7356518;19;20010;-61
2022/03/21 11:28:42;;;;;;;21.30;13.60;;;13.90;1.00;;;;;;7361464;19;20023;-61
2022/03/21 11:31:39;;;;;;;22.02;13.50;;;13.80;1.00;;;;;;7360845;19;20013;-61
2022/03/21 11:34:23;;;;;;;22.27;14.10;;;13.80;1.00;;;;;;7351334;19;20018;-61
2022/03/21 11:36:54;;;;;;;22.52;14.63;;;14.00;1.00;;;;;;7362524;19;20098;-61
2022/03/21 11:39:26;;;;;;;19.40;12.98;;;13.70;1.00;;;;;;7360201;19;20082;-62
2022/03/21 11:42:06;;;;;;;22.33;14.45;;;14.10;1.00;;;;;;7362480;19;20560;-61
2022/03/21 11:44:36;;;;;;;22.75;13.98;;;13.90;1.00;;;;;;7351907;19;20187;-60
2022/03/21 11:47:27;;;;;;;19.10;13.85;;;14.00;1.00;;;;;;7381229;19;20454;-62
2022/03/21 11:49:59;;;;;;;24.85;13.98;;;14.20;1.00;;;;;;7358271;19;20022;-62
2022/03/21 11:52:29;;;;;;;21.17;13.68;;;14.20;1.00;;;;;;7358445;19;20017;-65
2022/03/21 11:55:01;;;;;;;22.65;14.55;;;14.40;1.00;;;;;;7352876;19;20010;-61
2022/03/21 11:57:35;;;;;;;19.52;12.70;;;14.50;1.00;;;;;;7360723;19;20498;-62
2022/03/21 12:00:22;;;;;;;21.85;14.15;;;14.60;1.00;;;;;;7358472;19;20086;-61
2022/03/21 12:03:01;;;;;;;24.25;13.60;;;14.80;1.00;;;;;;7358766;19;20016;-62
2022/03/21 12:05:50;;;;;;;23.35;13.85;;;14.60;1.00;;;;;;7355942;19;20554;-61
2022/03/21 12:08:49;;;;;;;18.95;12.85;;;14.60;1.00;;;;;;7361195;19;20007;-62
2022/03/21 12:11:52;;;;;;;18.52;13.25;;;15.10;1.00;;;;;;7363084;19;20013;-60
2022/03/21 12:14:36;;;;;;;20.73;13.70;;;15.40;1.00;;;;;;7357498;19;20025;-61
2022/03/21 12:17:30;;;;;;;20.05;13.32;;;15.00;1.00;;;;;;7391967;19;20010;-61
2022/03/21 12:20:04;;;;;;;23.17;14.20;;;15.00;1.00;;;;;;7369084;19;20013;-61
2022/03/21 12:23:00;;;;;;;19.58;13.38;;;15.20;1.00;;;;;;7366945;19;20073;-62
2022/03/21 12:25:48;;;;;;;21.27;12.73;;;15.40;1.00;;;;;;7362024;19;20006;-62
2022/03/21 12:31:26;;;;;;;21.23;12.95;;;15.30;1.00;;;;;;7367202;19;20011;-61
2022/03/21 12:34:16;;;;;;;;;;;15.20;1.00;;;;;;7362602;19;20458;-61
2022/03/21 12:36:46;;;;;;;20.83;11.70;;;15.50;1.00;;;;;;7370274;19;19986;-60
2022/03/21 12:39:22;;;;;;;18.83;11.57;;;15.50;1.00;;;;;;7367853;19;20020;-61
2022/03/21 12:41:53;;;;;;;20.55;11.38;;;15.40;1.00;;;;;;7365201;19;20010;-62
2022/03/21 12:44:23;;;;;;;25.08;10.95;;;15.70;1.00;;;;;;7359412;19;20037;-61
2022/03/21 12:47:00;;;;;;;16.10;11.07;;;15.80;1.00;;;;;;7388956;19;20021;-60
2022/03/21 12:49:51;;;;;;;20.88;11.82;;;15.80;1.00;;;;;;7368057;19;20007;-62
2022/03/21 12:52:28;;;;;;;16.75;11.20;;;15.70;1.00;;;;;;7364194;19;20085;-62
2022/03/21 12:55:03;;;;;;;17.05;11.60;;;15.90;1.00;;;;;;7359636;19;20085;-62
2022/03/21 12:57:32;;;;;;;;;;;15.90;1.00;;;;;;7367433;19;20010;-62
2022/03/21 13:00:18;;;;;;;16.38;11.30;;;15.80;1.00;;;;;;7364825;19;19917;-62
2022/03/21 13:02:48;;;;;;;19.90;12.00;;;15.70;1.00;;;;;;7365997;19;20014;-61
2022/03/21 13:10:46;;;;;;;24.65;11.88;;;15.80;1.00;;;;;;7366385;19;20006;-62
2022/03/21 13:13:15;;;;;;;17.55;11.73;;;16.10;1.00;;;;;;7361959;19;20301;-62
2022/03/21 13:15:45;;;;;;;18.92;11.43;;;15.90;1.00;;;;;;7363293;19;20081;-61
2022/03/21 13:18:15;;;;;;;20.65;11.65;;;15.90;1.00;;;;;;7366819;19;20011;-63
2022/03/21 13:20:47;;;;;;;19.95;10.57;;;15.80;1.00;;;;;;7365747;19;20035;-62
2022/03/21 13:23:22;;;;;;;19.23;10.50;;;16.10;1.00;;;;;;7362482;19;20022;-63
2022/03/21 13:25:54;;;;;;;17.25;10.88;;;16.30;1.00;;;;;;7386833;19;20512;-63
2022/03/21 13:28:31;;;;;;;18.48;10.30;;;16.20;1.00;;;;;;7366521;19;20018;-61
2022/03/21 13:31:09;;;;;;;17.38;10.20;;;15.90;1.00;;;;;;7366477;19;20027;-62
2022/03/21 13:33:41;;;;;;;15.65;10.43;;;15.90;1.00;;;;;;7361225;19;20295;-63
2022/03/21 13:36:19;;;;;;;20.85;10.82;;;16.00;1.00;;;;;;7365324;19;20027;-62
2022/03/21 13:38:49;;;;;;;17.15;10.82;;;16.00;1.00;;;;;;7365182;19;20098;-61
2022/03/21 13:41:22;;;;;;;18.00;9.80;;;16.00;1.00;;;;;;7366070;19;20463;-62
2022/03/21 13:44:05;;;;;;;17.70;9.85;;;16.00;1.00;;;;;;7383137;19;20466;-62
2022/03/21 13:46:35;;;;;;;18.80;10.05;;;16.10;1.00;;;;;;7364968;19;20014;-62
2022/03/21 13:49:05;;;;;;;16.98;9.80;;;16.40;1.00;;;;;;7367127;19;20003;-62